sensor_id;sensor_type;location;lat;lon;timestamp;P1;durP1;ratioP1;P2;durP2;ratioP2
50757;SDS011;36732;47.980;11.652;2023-06-01T00:01:49;4.25;;;3.85;;
50757;SDS011;36732;47.980;11.652;2023-06-01T00:04:15;4.72;;;3.67;;
50757;SDS011;36732;47.980;11.652;2023-06-01T00:06:42;5.32;;;4.32;;
50757;SDS011;36732;47.980;11.652;2023-06-01T00:09:08;6.80;;;4.07;;
50757;SDS011;36732;47.980;11.652;2023-06-01T00:11:34;7.28;;;4.18;;
50757;SDS011;36732;47.980;11.652;2023-06-01T00:14:00;4.28;;;3.75;;
50757;SDS011;36732;47.980;11.652;2023-06-01T00:16:27;4.47;;;3.45;;
50757;SDS011;36732;47.980;11.652;2023-06-01T00:18:55;4.80;;;3.97;;
50757;SDS011;36732;47.980;11.652;2023-06-01T00:21:22;4.53;;;3.70;;
50757;SDS011;36732;47.980;11.652;2023-06-01T00:23:48;7.05;;;3.97;;
50757;SDS011;36732;47.980;11.652;2023-06-01T00:26:14;7.57;;;4.13;;
50757;SDS011;36732;47.980;11.652;2023-06-01T00:28:40;5.60;;;4.13;;
50757;SDS011;36732;47.980;11.652;2023-06-01T00:31:06;9.68;;;3.85;;
50757;SDS011;36732;47.980;11.652;2023-06-01T00:33:32;4.45;;;4.05;;
50757;SDS011;36732;47.980;11.652;2023-06-01T00:35:58;5.68;;;4.38;;
50757;SDS011;36732;47.980;11.652;2023-06-01T00:38:24;5.03;;;4.10;;
50757;SDS011;36732;47.980;11.652;2023-06-01T00:40:50;6.18;;;4.00;;
50757;SDS011;36732;47.980;11.652;2023-06-01T00:43:16;6.65;;;4.10;;
50757;SDS011;36732;47.980;11.652;2023-06-01T00:45:43;4.47;;;3.83;;
50757;SDS011;36732;47.980;11.652;2023-06-01T00:48:10;6.18;;;4.00;;
50757;SDS011;36732;47.980;11.652;2023-06-01T00:50:37;6.32;;;4.30;;
50757;SDS011;36732;47.980;11.652;2023-06-01T00:53:05;4.97;;;3.97;;
50757;SDS011;36732;47.980;11.652;2023-06-01T00:55:34;5.05;;;3.83;;
50757;SDS011;36732;47.980;11.652;2023-06-01T00:58:00;5.45;;;4.28;;
50757;SDS011;36732;47.980;11.652;2023-06-01T01:00:27;4.97;;;3.85;;
50757;SDS011;36732;47.980;11.652;2023-06-01T01:02:54;4.32;;;3.80;;
50757;SDS011;36732;47.980;11.652;2023-06-01T01:05:21;4.90;;;3.83;;
50757;SDS011;36732;47.980;11.652;2023-06-01T01:10:39;5.75;;;3.97;;
50757;SDS011;36732;47.980;11.652;2023-06-01T01:13:26;5.43;;;3.97;;
50757;SDS011;36732;47.980;11.652;2023-06-01T01:16:05;4.85;;;4.10;;
50757;SDS011;36732;47.980;11.652;2023-06-01T01:18:42;5.40;;;3.90;;
50757;SDS011;36732;47.980;11.652;2023-06-01T01:21:19;6.15;;;4.15;;
50757;SDS011;36732;47.980;11.652;2023-06-01T01:29:23;11.02;;;4.20;;
50757;SDS011;36732;47.980;11.652;2023-06-01T01:31:51;4.68;;;3.75;;
50757;SDS011;36732;47.980;11.652;2023-06-01T01:34:19;5.72;;;3.95;;
50757;SDS011;36732;47.980;11.652;2023-06-01T01:36:46;4.93;;;3.85;;
50757;SDS011;36732;47.980;11.652;2023-06-01T01:39:12;5.50;;;3.97;;
50757;SDS011;36732;47.980;11.652;2023-06-01T01:41:38;5.85;;;4.10;;
50757;SDS011;36732;47.980;11.652;2023-06-01T01:44:03;5.43;;;3.80;;
50757;SDS011;36732;47.980;11.652;2023-06-01T01:46:31;7.30;;;4.40;;
50757;SDS011;36732;47.980;11.652;2023-06-01T01:49:20;6.60;;;4.40;;
50757;SDS011;36732;47.980;11.652;2023-06-01T01:52:00;5.50;;;4.07;;
50757;SDS011;36732;47.980;11.652;2023-06-01T01:54:36;7.22;;;4.40;;
50757;SDS011;36732;47.980;11.652;2023-06-01T01:57:06;6.72;;;4.47;;
50757;SDS011;36732;47.980;11.652;2023-06-01T01:59:33;5.57;;;4.13;;
50757;SDS011;36732;47.980;11.652;2023-06-01T02:02:00;6.57;;;4.68;;
50757;SDS011;36732;47.980;11.652;2023-06-01T02:04:27;6.22;;;4.18;;
50757;SDS011;36732;47.980;11.652;2023-06-01T02:06:53;5.75;;;4.82;;
50757;SDS011;36732;47.980;11.652;2023-06-01T02:09:19;5.93;;;4.40;;
50757;SDS011;36732;47.980;11.652;2023-06-01T02:11:45;8.32;;;4.90;;
50757;SDS011;36732;47.980;11.652;2023-06-01T02:14:11;6.53;;;4.20;;
50757;SDS011;36732;47.980;11.652;2023-06-01T02:16:36;7.55;;;4.82;;
50757;SDS011;36732;47.980;11.652;2023-06-01T02:19:02;5.18;;;4.25;;
50757;SDS011;36732;47.980;11.652;2023-06-01T02:21:28;6.75;;;4.55;;
50757;SDS011;36732;47.980;11.652;2023-06-01T02:23:56;9.40;;;4.47;;
50757;SDS011;36732;47.980;11.652;2023-06-01T02:26:29;8.55;;;4.93;;
50757;SDS011;36732;47.980;11.652;2023-06-01T02:28:55;6.85;;;4.82;;
50757;SDS011;36732;47.980;11.652;2023-06-01T02:31:21;6.55;;;4.50;;
50757;SDS011;36732;47.980;11.652;2023-06-01T02:33:47;5.72;;;4.28;;
50757;SDS011;36732;47.980;11.652;2023-06-01T02:36:13;6.57;;;4.70;;
50757;SDS011;36732;47.980;11.652;2023-06-01T02:38:41;7.13;;;5.35;;
50757;SDS011;36732;47.980;11.652;2023-06-01T02:41:07;6.93;;;5.38;;
50757;SDS011;36732;47.980;11.652;2023-06-01T02:43:34;5.10;;;4.00;;
50757;SDS011;36732;47.980;11.652;2023-06-01T02:46:00;7.03;;;4.60;;
50757;SDS011;36732;47.980;11.652;2023-06-01T02:48:26;6.22;;;4.40;;
50757;SDS011;36732;47.980;11.652;2023-06-01T02:50:53;6.10;;;4.70;;
50757;SDS011;36732;47.980;11.652;2023-06-01T02:53:18;5.55;;;4.20;;
50757;SDS011;36732;47.980;11.652;2023-06-01T02:55:44;7.18;;;4.20;;
50757;SDS011;36732;47.980;11.652;2023-06-01T02:58:10;6.78;;;4.63;;
50757;SDS011;36732;47.980;11.652;2023-06-01T03:00:41;6.78;;;4.47;;
50757;SDS011;36732;47.980;11.652;2023-06-01T03:03:07;5.72;;;4.10;;
50757;SDS011;36732;47.980;11.652;2023-06-01T03:05:33;7.53;;;3.90;;
50757;SDS011;36732;47.980;11.652;2023-06-01T03:08:00;5.38;;;4.25;;
50757;SDS011;36732;47.980;11.652;2023-06-01T03:10:27;4.95;;;3.88;;
50757;SDS011;36732;47.980;11.652;2023-06-01T03:12:53;5.28;;;4.25;;
50757;SDS011;36732;47.980;11.652;2023-06-01T03:15:19;5.57;;;4.80;;
50757;SDS011;36732;47.980;11.652;2023-06-01T03:17:45;4.82;;;4.20;;
50757;SDS011;36732;47.980;11.652;2023-06-01T03:20:11;6.72;;;4.45;;
50757;SDS011;36732;47.980;11.652;2023-06-01T03:22:45;6.03;;;4.55;;
50757;SDS011;36732;47.980;11.652;2023-06-01T03:25:11;5.82;;;4.10;;
50757;SDS011;36732;47.980;11.652;2023-06-01T03:27:38;5.85;;;4.40;;
50757;SDS011;36732;47.980;11.652;2023-06-01T03:30:05;5.18;;;4.28;;
50757;SDS011;36732;47.980;11.652;2023-06-01T03:32:38;7.53;;;4.93;;
50757;SDS011;36732;47.980;11.652;2023-06-01T03:35:06;5.13;;;4.35;;
50757;SDS011;36732;47.980;11.652;2023-06-01T03:37:33;5.05;;;4.50;;
50757;SDS011;36732;47.980;11.652;2023-06-01T03:40:00;5.68;;;4.28;;
50757;SDS011;36732;47.980;11.652;2023-06-01T03:42:35;6.47;;;5.00;;
50757;SDS011;36732;47.980;11.652;2023-06-01T03:45:19;6.38;;;4.90;;
50757;SDS011;36732;47.980;11.652;2023-06-01T03:47:45;5.35;;;4.57;;
50757;SDS011;36732;47.980;11.652;2023-06-01T03:50:11;6.38;;;4.60;;
50757;SDS011;36732;47.980;11.652;2023-06-01T03:52:37;8.48;;;5.50;;
50757;SDS011;36732;47.980;11.652;2023-06-01T03:55:04;6.70;;;4.90;;
50757;SDS011;36732;47.980;11.652;2023-06-01T03:57:33;6.00;;;4.57;;
50757;SDS011;36732;47.980;11.652;2023-06-01T04:00:01;6.57;;;4.90;;
50757;SDS011;36732;47.980;11.652;2023-06-01T04:02:43;5.85;;;4.45;;
50757;SDS011;36732;47.980;11.652;2023-06-01T04:05:13;7.63;;;4.93;;
50757;SDS011;36732;47.980;11.652;2023-06-01T04:07:42;5.60;;;4.82;;
50757;SDS011;36732;47.980;11.652;2023-06-01T04:10:10;6.70;;;5.25;;
50757;SDS011;36732;47.980;11.652;2023-06-01T04:12:38;4.90;;;4.10;;
50757;SDS011;36732;47.980;11.652;2023-06-01T04:15:06;7.43;;;5.35;;
50757;SDS011;36732;47.980;11.652;2023-06-01T04:17:35;7.72;;;4.65;;
50757;SDS011;36732;47.980;11.652;2023-06-01T04:20:03;7.93;;;5.03;;
50757;SDS011;36732;47.980;11.652;2023-06-01T04:22:34;6.28;;;4.63;;
50757;SDS011;36732;47.980;11.652;2023-06-01T04:25:05;6.18;;;5.15;;
50757;SDS011;36732;47.980;11.652;2023-06-01T04:27:45;8.60;;;5.05;;
50757;SDS011;36732;47.980;11.652;2023-06-01T04:30:14;6.30;;;4.70;;
50757;SDS011;36732;47.980;11.652;2023-06-01T04:32:41;6.18;;;4.88;;
50757;SDS011;36732;47.980;11.652;2023-06-01T04:35:09;8.27;;;4.70;;
50757;SDS011;36732;47.980;11.652;2023-06-01T04:37:36;9.93;;;5.57;;
50757;SDS011;36732;47.980;11.652;2023-06-01T04:40:04;5.78;;;5.07;;
50757;SDS011;36732;47.980;11.652;2023-06-01T04:42:33;5.95;;;4.97;;
50757;SDS011;36732;47.980;11.652;2023-06-01T04:45:00;5.95;;;5.05;;
50757;SDS011;36732;47.980;11.652;2023-06-01T04:47:29;7.63;;;5.03;;
50757;SDS011;36732;47.980;11.652;2023-06-01T04:50:09;5.85;;;4.68;;
50757;SDS011;36732;47.980;11.652;2023-06-01T04:52:39;13.63;;;4.93;;
50757;SDS011;36732;47.980;11.652;2023-06-01T04:55:06;6.30;;;4.68;;
50757;SDS011;36732;47.980;11.652;2023-06-01T04:57:33;6.32;;;5.32;;
50757;SDS011;36732;47.980;11.652;2023-06-01T05:00:04;7.07;;;4.78;;
50757;SDS011;36732;47.980;11.652;2023-06-01T05:02:41;6.47;;;4.90;;
50757;SDS011;36732;47.980;11.652;2023-06-01T05:05:08;7.68;;;5.20;;
50757;SDS011;36732;47.980;11.652;2023-06-01T05:07:35;8.10;;;5.28;;
50757;SDS011;36732;47.980;11.652;2023-06-01T05:10:06;7.85;;;5.55;;
50757;SDS011;36732;47.980;11.652;2023-06-01T05:12:34;7.25;;;5.05;;
50757;SDS011;36732;47.980;11.652;2023-06-01T05:15:03;6.22;;;4.70;;
50757;SDS011;36732;47.980;11.652;2023-06-01T05:17:32;5.13;;;4.60;;
50757;SDS011;36732;47.980;11.652;2023-06-01T05:19:58;6.70;;;4.82;;
50757;SDS011;36732;47.980;11.652;2023-06-01T05:22:24;5.55;;;4.80;;
50757;SDS011;36732;47.980;11.652;2023-06-01T05:24:50;6.68;;;4.47;;
50757;SDS011;36732;47.980;11.652;2023-06-01T05:27:16;7.50;;;5.10;;
50757;SDS011;36732;47.980;11.652;2023-06-01T05:29:43;6.45;;;5.00;;
50757;SDS011;36732;47.980;11.652;2023-06-01T05:32:09;5.30;;;4.80;;
50757;SDS011;36732;47.980;11.652;2023-06-01T05:34:35;9.20;;;5.88;;
50757;SDS011;36732;47.980;11.652;2023-06-01T05:37:01;8.82;;;5.43;;
50757;SDS011;36732;47.980;11.652;2023-06-01T05:39:27;5.88;;;5.03;;
50757;SDS011;36732;47.980;11.652;2023-06-01T05:41:54;6.88;;;5.85;;
50757;SDS011;36732;47.980;11.652;2023-06-01T05:44:20;7.70;;;5.32;;
50757;SDS011;36732;47.980;11.652;2023-06-01T05:46:46;6.30;;;5.35;;
50757;SDS011;36732;47.980;11.652;2023-06-01T05:49:12;7.05;;;5.07;;
50757;SDS011;36732;47.980;11.652;2023-06-01T05:51:39;7.78;;;4.72;;
50757;SDS011;36732;47.980;11.652;2023-06-01T05:54:05;7.38;;;5.75;;
50757;SDS011;36732;47.980;11.652;2023-06-01T05:56:31;9.95;;;5.60;;
50757;SDS011;36732;47.980;11.652;2023-06-01T05:58:58;8.35;;;5.30;;
50757;SDS011;36732;47.980;11.652;2023-06-01T06:01:24;14.27;;;6.53;;
50757;SDS011;36732;47.980;11.652;2023-06-01T06:03:52;7.88;;;5.88;;
50757;SDS011;36732;47.980;11.652;2023-06-01T06:06:18;8.02;;;5.50;;
50757;SDS011;36732;47.980;11.652;2023-06-01T06:08:44;6.88;;;5.10;;
50757;SDS011;36732;47.980;11.652;2023-06-01T06:11:09;8.32;;;5.32;;
50757;SDS011;36732;47.980;11.652;2023-06-01T06:13:35;9.27;;;5.85;;
50757;SDS011;36732;47.980;11.652;2023-06-01T06:16:01;6.63;;;5.47;;
50757;SDS011;36732;47.980;11.652;2023-06-01T06:18:27;7.65;;;5.63;;
50757;SDS011;36732;47.980;11.652;2023-06-01T06:20:52;8.32;;;5.55;;
50757;SDS011;36732;47.980;11.652;2023-06-01T06:23:18;7.85;;;5.20;;
50757;SDS011;36732;47.980;11.652;2023-06-01T06:25:45;5.32;;;4.80;;
50757;SDS011;36732;47.980;11.652;2023-06-01T06:28:13;6.93;;;5.38;;
50757;SDS011;36732;47.980;11.652;2023-06-01T06:30:40;7.28;;;5.03;;
50757;SDS011;36732;47.980;11.652;2023-06-01T06:33:05;9.05;;;5.47;;
50757;SDS011;36732;47.980;11.652;2023-06-01T06:35:31;6.80;;;4.88;;
50757;SDS011;36732;47.980;11.652;2023-06-01T06:37:57;6.82;;;5.47;;
50757;SDS011;36732;47.980;11.652;2023-06-01T06:40:23;10.68;;;5.45;;
50757;SDS011;36732;47.980;11.652;2023-06-01T06:42:48;9.80;;;4.88;;
50757;SDS011;36732;47.980;11.652;2023-06-01T06:45:15;7.60;;;5.45;;
50757;SDS011;36732;47.980;11.652;2023-06-01T06:47:42;7.28;;;4.65;;
50757;SDS011;36732;47.980;11.652;2023-06-01T06:50:10;9.02;;;5.43;;
50757;SDS011;36732;47.980;11.652;2023-06-01T06:52:37;6.72;;;4.45;;
50757;SDS011;36732;47.980;11.652;2023-06-01T06:55:03;5.32;;;4.82;;
50757;SDS011;36732;47.980;11.652;2023-06-01T06:57:29;11.45;;;4.68;;
50757;SDS011;36732;47.980;11.652;2023-06-01T06:59:55;7.13;;;4.70;;
50757;SDS011;36732;47.980;11.652;2023-06-01T07:02:21;6.60;;;5.05;;
50757;SDS011;36732;47.980;11.652;2023-06-01T07:04:47;11.40;;;5.15;;
50757;SDS011;36732;47.980;11.652;2023-06-01T07:07:13;6.30;;;4.90;;
50757;SDS011;36732;47.980;11.652;2023-06-01T07:09:39;8.55;;;5.28;;
50757;SDS011;36732;47.980;11.652;2023-06-01T07:12:06;7.03;;;5.18;;
50757;SDS011;36732;47.980;11.652;2023-06-01T07:14:33;6.32;;;5.25;;
50757;SDS011;36732;47.980;11.652;2023-06-01T07:16:59;6.97;;;5.10;;
50757;SDS011;36732;47.980;11.652;2023-06-01T07:19:25;5.85;;;5.03;;
50757;SDS011;36732;47.980;11.652;2023-06-01T07:21:57;6.70;;;5.10;;
50757;SDS011;36732;47.980;11.652;2023-06-01T07:24:26;6.65;;;4.85;;
50757;SDS011;36732;47.980;11.652;2023-06-01T07:26:53;6.85;;;4.68;;
50757;SDS011;36732;47.980;11.652;2023-06-01T07:29:20;6.10;;;4.18;;
50757;SDS011;36732;47.980;11.652;2023-06-01T07:31:46;13.77;;;5.43;;
50757;SDS011;36732;47.980;11.652;2023-06-01T07:34:12;5.60;;;4.40;;
50757;SDS011;36732;47.980;11.652;2023-06-01T07:36:39;7.32;;;4.05;;
50757;SDS011;36732;47.980;11.652;2023-06-01T07:39:05;5.88;;;4.55;;
50757;SDS011;36732;47.980;11.652;2023-06-01T07:41:34;8.10;;;4.38;;
50757;SDS011;36732;47.980;11.652;2023-06-01T07:44:00;7.78;;;4.93;;
50757;SDS011;36732;47.980;11.652;2023-06-01T07:46:26;7.82;;;4.85;;
50757;SDS011;36732;47.980;11.652;2023-06-01T07:48:51;5.78;;;3.95;;
50757;SDS011;36732;47.980;11.652;2023-06-01T07:51:17;5.30;;;4.20;;
50757;SDS011;36732;47.980;11.652;2023-06-01T07:53:43;8.13;;;4.63;;
50757;SDS011;36732;47.980;11.652;2023-06-01T07:56:09;7.65;;;4.90;;
50757;SDS011;36732;47.980;11.652;2023-06-01T07:58:35;8.85;;;5.22;;
50757;SDS011;36732;47.980;11.652;2023-06-01T08:01:02;7.22;;;4.38;;
50757;SDS011;36732;47.980;11.652;2023-06-01T08:03:29;7.43;;;4.93;;
50757;SDS011;36732;47.980;11.652;2023-06-01T08:05:58;5.95;;;4.47;;
50757;SDS011;36732;47.980;11.652;2023-06-01T08:08:27;6.80;;;4.82;;
50757;SDS011;36732;47.980;11.652;2023-06-01T08:10:53;11.07;;;5.25;;
50757;SDS011;36732;47.980;11.652;2023-06-01T08:13:19;6.50;;;5.07;;
50757;SDS011;36732;47.980;11.652;2023-06-01T08:15:45;9.55;;;5.30;;
50757;SDS011;36732;47.980;11.652;2023-06-01T08:18:13;10.02;;;5.35;;
50757;SDS011;36732;47.980;11.652;2023-06-01T08:20:39;7.88;;;4.85;;
50757;SDS011;36732;47.980;11.652;2023-06-01T08:23:05;7.38;;;4.90;;
50757;SDS011;36732;47.980;11.652;2023-06-01T08:25:30;6.07;;;4.80;;
50757;SDS011;36732;47.980;11.652;2023-06-01T08:27:56;8.10;;;5.32;;
50757;SDS011;36732;47.980;11.652;2023-06-01T08:30:24;6.35;;;5.03;;
50757;SDS011;36732;47.980;11.652;2023-06-01T08:32:51;9.35;;;5.35;;
50757;SDS011;36732;47.980;11.652;2023-06-01T08:35:17;7.93;;;5.35;;
50757;SDS011;36732;47.980;11.652;2023-06-01T08:37:44;7.20;;;5.20;;
50757;SDS011;36732;47.980;11.652;2023-06-01T08:40:12;5.88;;;5.10;;
50757;SDS011;36732;47.980;11.652;2023-06-01T08:43:04;8.25;;;5.40;;
50757;SDS011;36732;47.980;11.652;2023-06-01T08:45:28;15.60;;;4.95;;
50757;SDS011;36732;47.980;11.652;2023-06-01T08:47:54;9.02;;;5.45;;
50757;SDS011;36732;47.980;11.652;2023-06-01T08:50:23;7.55;;;5.40;;
50757;SDS011;36732;47.980;11.652;2023-06-01T08:52:52;10.60;;;5.63;;
50757;SDS011;36732;47.980;11.652;2023-06-01T08:55:22;7.68;;;5.50;;
50757;SDS011;36732;47.980;11.652;2023-06-01T08:57:48;7.53;;;5.75;;
50757;SDS011;36732;47.980;11.652;2023-06-01T09:00:14;7.38;;;5.13;;
50757;SDS011;36732;47.980;11.652;2023-06-01T09:02:42;9.13;;;5.00;;
50757;SDS011;36732;47.980;11.652;2023-06-01T09:05:09;5.40;;;4.85;;
50757;SDS011;36732;47.980;11.652;2023-06-01T09:07:36;8.05;;;5.45;;
50757;SDS011;36732;47.980;11.652;2023-06-01T09:10:03;9.85;;;5.38;;
50757;SDS011;36732;47.980;11.652;2023-06-01T09:12:30;8.07;;;5.32;;
50757;SDS011;36732;47.980;11.652;2023-06-01T09:15:15;6.40;;;4.28;;
50757;SDS011;36732;47.980;11.652;2023-06-01T09:17:42;8.65;;;4.70;;
50757;SDS011;36732;47.980;11.652;2023-06-01T09:20:28;7.32;;;4.75;;
50757;SDS011;36732;47.980;11.652;2023-06-01T09:22:54;8.70;;;4.35;;
50757;SDS011;36732;47.980;11.652;2023-06-01T09:25:27;9.05;;;4.68;;
50757;SDS011;36732;47.980;11.652;2023-06-01T09:27:56;6.65;;;4.32;;
50757;SDS011;36732;47.980;11.652;2023-06-01T09:30:24;7.07;;;3.97;;
50757;SDS011;36732;47.980;11.652;2023-06-01T09:33:11;8.35;;;4.63;;
50757;SDS011;36732;47.980;11.652;2023-06-01T09:35:41;6.57;;;4.07;;
50757;SDS011;36732;47.980;11.652;2023-06-01T09:38:08;6.00;;;4.40;;
50757;SDS011;36732;47.980;11.652;2023-06-01T09:40:36;5.18;;;3.90;;
50757;SDS011;36732;47.980;11.652;2023-06-01T09:43:22;5.50;;;4.10;;
50757;SDS011;36732;47.980;11.652;2023-06-01T09:46:03;5.70;;;4.40;;
50757;SDS011;36732;47.980;11.652;2023-06-01T09:48:35;6.60;;;4.07;;
50757;SDS011;36732;47.980;11.652;2023-06-01T09:51:01;6.55;;;4.30;;
50757;SDS011;36732;47.980;11.652;2023-06-01T09:53:27;6.65;;;4.10;;
50757;SDS011;36732;47.980;11.652;2023-06-01T09:56:00;4.07;;;3.67;;
50757;SDS011;36732;47.980;11.652;2023-06-01T09:58:27;4.82;;;4.05;;
50757;SDS011;36732;47.980;11.652;2023-06-01T10:00:53;5.88;;;4.03;;
50757;SDS011;36732;47.980;11.652;2023-06-01T10:03:20;7.10;;;4.53;;
50757;SDS011;36732;47.980;11.652;2023-06-01T10:05:47;5.10;;;3.88;;
50757;SDS011;36732;47.980;11.652;2023-06-01T10:08:14;5.40;;;3.92;;
50757;SDS011;36732;47.980;11.652;2023-06-01T10:10:43;6.03;;;4.63;;
50757;SDS011;36732;47.980;11.652;2023-06-01T10:13:11;13.88;;;4.93;;
50757;SDS011;36732;47.980;11.652;2023-06-01T10:15:37;6.60;;;5.07;;
50757;SDS011;36732;47.980;11.652;2023-06-01T10:18:04;5.78;;;4.00;;
50757;SDS011;36732;47.980;11.652;2023-06-01T10:20:34;5.47;;;4.07;;
50757;SDS011;36732;47.980;11.652;2023-06-01T10:23:02;5.55;;;3.80;;
50757;SDS011;36732;47.980;11.652;2023-06-01T10:25:30;7.65;;;4.72;;
50757;SDS011;36732;47.980;11.652;2023-06-01T10:28:09;4.72;;;3.78;;
50757;SDS011;36732;47.980;11.652;2023-06-01T10:30:37;5.90;;;4.25;;
50757;SDS011;36732;47.980;11.652;2023-06-01T10:33:03;5.47;;;4.18;;
50757;SDS011;36732;47.980;11.652;2023-06-01T10:40:34;7.82;;;3.88;;
50757;SDS011;36732;47.980;11.652;2023-06-01T10:43:01;5.32;;;4.45;;
50757;SDS011;36732;47.980;11.652;2023-06-01T10:48:01;4.57;;;3.60;;
50757;SDS011;36732;47.980;11.652;2023-06-01T10:50:28;5.68;;;4.32;;
50757;SDS011;36732;47.980;11.652;2023-06-01T10:52:55;5.28;;;4.25;;
50757;SDS011;36732;47.980;11.652;2023-06-01T10:55:25;5.47;;;4.18;;
50757;SDS011;36732;47.980;11.652;2023-06-01T10:58:19;7.32;;;4.60;;
50757;SDS011;36732;47.980;11.652;2023-06-01T11:00:51;6.65;;;4.40;;
50757;SDS011;36732;47.980;11.652;2023-06-01T11:03:41;4.82;;;4.32;;
50757;SDS011;36732;47.980;11.652;2023-06-01T11:06:34;8.05;;;4.00;;
50757;SDS011;36732;47.980;11.652;2023-06-01T11:09:06;6.13;;;4.43;;
50757;SDS011;36732;47.980;11.652;2023-06-01T11:14:23;5.50;;;4.15;;
50757;SDS011;36732;47.980;11.652;2023-06-01T11:16:52;6.10;;;3.80;;
50757;SDS011;36732;47.980;11.652;2023-06-01T11:19:19;5.82;;;4.07;;
50757;SDS011;36732;47.980;11.652;2023-06-01T11:21:51;6.28;;;4.18;;
50757;SDS011;36732;47.980;11.652;2023-06-01T11:24:32;7.05;;;4.28;;
50757;SDS011;36732;47.980;11.652;2023-06-01T11:27:05;7.35;;;4.32;;
50757;SDS011;36732;47.980;11.652;2023-06-01T11:29:32;6.57;;;4.22;;
50757;SDS011;36732;47.980;11.652;2023-06-01T11:32:00;5.88;;;4.20;;
50757;SDS011;36732;47.980;11.652;2023-06-01T11:34:31;4.78;;;4.10;;
50757;SDS011;36732;47.980;11.652;2023-06-01T11:37:13;5.65;;;4.10;;
50757;SDS011;36732;47.980;11.652;2023-06-01T11:39:40;7.53;;;4.43;;
50757;SDS011;36732;47.980;11.652;2023-06-01T11:42:07;5.20;;;4.68;;
50757;SDS011;36732;47.980;11.652;2023-06-01T11:44:35;7.13;;;4.35;;
50757;SDS011;36732;47.980;11.652;2023-06-01T11:47:06;7.00;;;3.95;;
50757;SDS011;36732;47.980;11.652;2023-06-01T11:49:40;6.00;;;4.35;;
50757;SDS011;36732;47.980;11.652;2023-06-01T11:52:14;7.53;;;4.38;;
50757;SDS011;36732;47.980;11.652;2023-06-01T11:54:41;6.18;;;4.45;;
50757;SDS011;36732;47.980;11.652;2023-06-01T11:57:07;10.90;;;4.35;;
50757;SDS011;36732;47.980;11.652;2023-06-01T11:59:43;5.75;;;3.97;;
50757;SDS011;36732;47.980;11.652;2023-06-01T12:04:56;5.68;;;4.40;;
50757;SDS011;36732;47.980;11.652;2023-06-01T12:07:53;4.85;;;3.80;;
50757;SDS011;36732;47.980;11.652;2023-06-01T12:10:20;6.22;;;4.10;;
50757;SDS011;36732;47.980;11.652;2023-06-01T12:12:47;5.85;;;3.95;;
50757;SDS011;36732;47.980;11.652;2023-06-01T12:15:13;5.88;;;4.55;;
50757;SDS011;36732;47.980;11.652;2023-06-01T12:17:47;5.47;;;3.85;;
50757;SDS011;36732;47.980;11.652;2023-06-01T12:25:57;6.68;;;4.43;;
50757;SDS011;36732;47.980;11.652;2023-06-01T12:28:24;4.80;;;3.83;;
50757;SDS011;36732;47.980;11.652;2023-06-01T12:31:07;5.45;;;4.15;;
50757;SDS011;36732;47.980;11.652;2023-06-01T12:33:38;5.78;;;4.28;;
50757;SDS011;36732;47.980;11.652;2023-06-01T12:36:06;5.28;;;4.00;;
50757;SDS011;36732;47.980;11.652;2023-06-01T12:38:49;7.63;;;4.07;;
50757;SDS011;36732;47.980;11.652;2023-06-01T12:41:17;6.03;;;4.30;;
50757;SDS011;36732;47.980;11.652;2023-06-01T12:43:46;6.07;;;4.38;;
50757;SDS011;36732;47.980;11.652;2023-06-01T12:46:17;6.55;;;3.88;;
50757;SDS011;36732;47.980;11.652;2023-06-01T12:48:49;7.95;;;4.43;;
50757;SDS011;36732;47.980;11.652;2023-06-01T12:51:18;8.40;;;3.97;;
50757;SDS011;36732;47.980;11.652;2023-06-01T12:53:46;6.20;;;4.35;;
50757;SDS011;36732;47.980;11.652;2023-06-01T12:56:12;13.15;;;4.32;;
50757;SDS011;36732;47.980;11.652;2023-06-01T12:58:39;7.57;;;3.90;;
50757;SDS011;36732;47.980;11.652;2023-06-01T13:01:05;6.05;;;3.72;;
50757;SDS011;36732;47.980;11.652;2023-06-01T13:03:31;29.08;;;5.07;;
50757;SDS011;36732;47.980;11.652;2023-06-01T13:05:58;8.15;;;3.80;;
50757;SDS011;36732;47.980;11.652;2023-06-01T13:08:25;5.35;;;4.03;;
50757;SDS011;36732;47.980;11.652;2023-06-01T13:10:51;7.07;;;4.10;;
50757;SDS011;36732;47.980;11.652;2023-06-01T13:13:17;6.75;;;3.97;;
50757;SDS011;36732;47.980;11.652;2023-06-01T13:15:43;7.65;;;3.95;;
50757;SDS011;36732;47.980;11.652;2023-06-01T13:18:12;5.53;;;3.60;;
50757;SDS011;36732;47.980;11.652;2023-06-01T13:20:38;7.45;;;3.72;;
50757;SDS011;36732;47.980;11.652;2023-06-01T13:23:04;6.25;;;3.78;;
50757;SDS011;36732;47.980;11.652;2023-06-01T13:25:30;5.28;;;3.75;;
50757;SDS011;36732;47.980;11.652;2023-06-01T13:27:58;5.93;;;4.32;;
50757;SDS011;36732;47.980;11.652;2023-06-01T13:30:24;5.55;;;3.95;;
50757;SDS011;36732;47.980;11.652;2023-06-01T13:32:50;3.67;;;3.35;;
50757;SDS011;36732;47.980;11.652;2023-06-01T13:35:16;5.43;;;3.90;;
50757;SDS011;36732;47.980;11.652;2023-06-01T13:37:43;9.80;;;3.95;;
50757;SDS011;36732;47.980;11.652;2023-06-01T13:40:09;4.45;;;3.35;;
50757;SDS011;36732;47.980;11.652;2023-06-01T13:42:35;4.63;;;3.85;;
50757;SDS011;36732;47.980;11.652;2023-06-01T13:45:01;4.18;;;3.55;;
50757;SDS011;36732;47.980;11.652;2023-06-01T13:47:28;3.53;;;3.17;;
50757;SDS011;36732;47.980;11.652;2023-06-01T13:49:54;5.20;;;3.45;;
50757;SDS011;36732;47.980;11.652;2023-06-01T13:52:19;4.80;;;3.20;;
50757;SDS011;36732;47.980;11.652;2023-06-01T13:54:45;8.43;;;3.80;;
50757;SDS011;36732;47.980;11.652;2023-06-01T13:57:11;5.57;;;3.45;;
50757;SDS011;36732;47.980;11.652;2023-06-01T13:59:37;5.07;;;3.47;;
50757;SDS011;36732;47.980;11.652;2023-06-01T14:02:03;4.18;;;3.75;;
50757;SDS011;36732;47.980;11.652;2023-06-01T14:04:29;4.07;;;3.20;;
50757;SDS011;36732;47.980;11.652;2023-06-01T14:06:55;6.95;;;3.75;;
50757;SDS011;36732;47.980;11.652;2023-06-01T14:09:22;4.55;;;3.50;;
50757;SDS011;36732;47.980;11.652;2023-06-01T14:11:48;3.95;;;3.55;;
50757;SDS011;36732;47.980;11.652;2023-06-01T14:14:14;5.68;;;3.70;;
50757;SDS011;36732;47.980;11.652;2023-06-01T14:16:40;4.50;;;3.63;;
50757;SDS011;36732;47.980;11.652;2023-06-01T14:19:06;4.82;;;3.70;;
50757;SDS011;36732;47.980;11.652;2023-06-01T14:21:32;4.72;;;3.58;;
50757;SDS011;36732;47.980;11.652;2023-06-01T14:23:59;7.18;;;3.72;;
50757;SDS011;36732;47.980;11.652;2023-06-01T14:26:26;4.40;;;3.78;;
50757;SDS011;36732;47.980;11.652;2023-06-01T14:28:52;6.57;;;3.67;;
50757;SDS011;36732;47.980;11.652;2023-06-01T14:31:18;7.47;;;3.45;;
50757;SDS011;36732;47.980;11.652;2023-06-01T14:33:47;4.43;;;3.45;;
50757;SDS011;36732;47.980;11.652;2023-06-01T14:36:13;4.35;;;3.42;;
50757;SDS011;36732;47.980;11.652;2023-06-01T14:38:39;4.32;;;2.80;;
50757;SDS011;36732;47.980;11.652;2023-06-01T14:41:05;5.20;;;3.33;;
50757;SDS011;36732;47.980;11.652;2023-06-01T14:43:31;5.60;;;3.60;;
50757;SDS011;36732;47.980;11.652;2023-06-01T14:45:58;4.35;;;3.22;;
50757;SDS011;36732;47.980;11.652;2023-06-01T14:48:24;4.43;;;3.53;;
50757;SDS011;36732;47.980;11.652;2023-06-01T14:50:50;4.82;;;3.03;;
50757;SDS011;36732;47.980;11.652;2023-06-01T14:53:17;3.65;;;3.22;;
50757;SDS011;36732;47.980;11.652;2023-06-01T14:55:42;4.18;;;3.00;;
50757;SDS011;36732;47.980;11.652;2023-06-01T14:58:09;4.88;;;3.45;;
50757;SDS011;36732;47.980;11.652;2023-06-01T15:00:35;5.13;;;3.40;;
50757;SDS011;36732;47.980;11.652;2023-06-01T15:03:02;7.47;;;3.80;;
50757;SDS011;36732;47.980;11.652;2023-06-01T15:05:28;5.82;;;3.13;;
50757;SDS011;36732;47.980;11.652;2023-06-01T15:07:55;5.47;;;3.38;;